Time;durP1;ratioP1;P1;durP2;ratioP2;P2;SDS_P1;SDS_P2;PMS_P1;PMS_P2;Temp;Humidity;BMP_temperature;BMP_pressure;BME280_temperature;BME280_humidity;BME280_pressure;Samples;Min_cycle;Max_cycle;Signal;HPM_P1;HPM_P2
2022/11/18 00:00:24;;;;;;;18.83;9.30;;;;;;;7.95;nan;-24039.03;5033467;28;20175;-72
2022/11/18 00:02:50;;;;;;;14.00;8.07;;;;;;;7.81;nan;-24035.22;5033056;28;20191;-71
2022/11/18 00:05:15;;;;;;;17.30;8.40;;;;;;;8.08;nan;-24042.72;5033533;28;20171;-71
2022/11/18 00:07:41;;;;;;;16.17;8.40;;;;;;;7.98;nan;-24039.88;5033601;28;20213;-71
2022/11/18 00:10:06;;;;;;;13.50;7.97;;;;;;;8.16;nan;-24044.84;5015595;28;20207;-71
2022/11/18 00:15:15;;;;;;;13.63;7.23;;;;;;;7.68;nan;-24031.38;5032921;28;20190;-71
2022/11/18 00:17:41;;;;;;;14.43;7.47;;;;;;;7.53;nan;-24027.41;5033607;28;20179;-71
2022/11/18 00:20:06;;;;;;;12.83;7.77;;;;;;;7.89;nan;-24037.47;5033370;28;20202;-71
2022/11/18 00:22:32;;;;;;;14.63;8.13;;;;;;;7.95;nan;-24039.16;5032948;28;20172;-71
2022/11/18 00:24:57;;;;;;;20.17;8.50;;;;;;;7.64;nan;-24030.38;5032277;28;20211;-71
2022/11/18 00:27:23;;;;;;;14.67;7.47;;;;;;;8.07;nan;-24042.28;5032979;28;20622;-71
2022/11/18 00:29:48;;;;;;;14.57;7.57;;;;;;;7.98;nan;-24040.03;5032519;28;20207;-71
2022/11/18 00:32:13;;;;;;;15.20;8.10;;;;;;;8.11;nan;-24043.56;5032790;28;20232;-71
2022/11/18 00:34:39;;;;;;;10.53;7.10;;;;;;;7.90;nan;-24037.75;5033085;28;20176;-71
2022/11/18 00:37:04;;;;;;;17.83;7.83;;;;;;;8.03;nan;-24041.28;5032939;28;20560;-71
2022/11/18 00:39:29;;;;;;;12.03;7.57;;;;;;;8.32;nan;-24049.38;5032712;28;20175;-71
2022/11/18 00:44:39;;;;;;;16.20;8.00;;;;;;;7.94;nan;-24038.88;5032302;28;20241;-71
2022/11/18 00:47:04;;;;;;;16.17;8.37;;;;;;;8.26;nan;-24047.66;5032744;28;20172;-72
2022/11/18 00:49:30;;;;;;;14.40;7.87;;;;;;;8.18;nan;-24045.53;5032722;28;20194;-71
2022/11/18 00:51:55;;;;;;;12.50;6.87;;;;;;;7.87;nan;-24036.91;5032628;28;20542;-71
2022/11/18 00:54:21;;;;;;;16.47;9.00;;;;;;;7.85;nan;-24036.19;5033027;28;20171;-71
2022/11/18 00:56:46;;;;;;;16.47;8.37;;;;;;;7.95;nan;-24039.16;5032179;28;20176;-71
2022/11/18 00:59:12;;;;;;;15.87;8.67;;;;;;;8.03;nan;-24041.16;5032043;28;20190;-71
2022/11/18 01:01:37;;;;;;;15.63;8.00;;;;;;;8.40;nan;-24051.63;5032708;28;20179;-71
2022/11/18 01:04:03;;;;;;;11.47;7.47;;;;;;;7.99;nan;-24040.31;5032656;28;20180;-71
2022/11/18 01:06:29;;;;;;;10.13;6.37;;;;;;;8.00;nan;-24040.59;5032447;28;20171;-71
2022/11/18 01:08:54;;;;;;;14.07;7.93;;;;;;;8.39;nan;-24051.34;5032204;28;20175;-72
2022/11/18 01:14:04;;;;;;;11.03;6.87;;;;;;;8.46;nan;-24053.34;5032268;28;20170;-71
2022/11/18 01:16:30;;;;;;;16.33;7.70;;;;;;;8.37;nan;-24050.78;5032484;28;20171;-71
2022/11/18 01:18:55;;;;;;;10.03;6.37;;;;;;;8.43;nan;-24052.63;5032107;28;20160;-71
2022/11/18 01:21:21;;;;;;;13.07;7.50;;;;;;;8.47;nan;-24053.63;5032156;28;20179;-71
2022/11/18 01:23:47;;;;;;;12.20;7.20;;;;;;;8.09;nan;-24043.00;5032170;28;20176;-71
2022/11/18 01:26:14;;;;;;;12.57;6.90;;;;;;;8.47;nan;-24053.63;5031865;28;20555;-71
2022/11/18 01:28:40;;;;;;;11.57;6.17;;;;;;;8.23;nan;-24046.97;5031858;28;20179;-71
2022/11/18 01:31:11;;;;;;;11.77;6.72;;;;;;;8.12;nan;-24043.84;5031764;28;20176;-71
2022/11/18 01:33:37;;;;;;;10.13;5.90;;;;;;;8.08;nan;-24042.56;5031982;28;20185;-71
2022/11/18 01:36:02;;;;;;;13.37;6.73;;;;;;;8.41;nan;-24051.91;5031257;28;20694;-71
2022/11/18 01:38:28;;;;;;;9.50;5.80;;;;;;;8.48;nan;-24053.75;5031562;28;20179;-71
2022/11/18 01:40:55;;;;;;;14.07;7.47;;;;;;;8.72;nan;-24060.56;5032133;28;20202;-71
2022/11/18 01:43:21;;;;;;;11.37;6.20;;;;;;;8.66;nan;-24059.00;5032040;28;20355;-71
2022/11/18 01:45:50;;;;;;;12.27;6.63;;;;;;;8.68;nan;-24059.56;5031898;28;20253;-71
2022/11/18 01:48:30;;;;;;;10.23;5.87;;;;;;;8.68;nan;-24059.56;5032094;28;20174;-71
2022/11/18 01:51:04;;;;;;;9.53;5.80;;;;;;;8.69;nan;-24059.84;5031456;28;20289;-71
2022/11/18 01:53:33;;;;;;;7.90;5.50;;;;;;;8.73;nan;-24060.97;5032201;28;20626;-71
2022/11/18 01:56:06;;;;;;;10.03;5.67;;;;;;;8.48;nan;-24053.91;5031392;28;20529;-71
2022/11/18 01:58:40;;;;;;;6.93;5.33;;;;;;;8.63;nan;-24058.16;5031825;28;20167;-71
2022/11/18 02:01:06;;;;;;;10.03;6.17;;;;;;;8.54;nan;-24055.59;5031650;28;20175;-71
2022/11/18 02:03:33;;;;;;;11.07;6.83;;;;;;;8.68;nan;-24059.56;5031171;28;20186;-71
2022/11/18 02:06:00;;;;;;;10.00;6.10;;;;;;;8.72;nan;-24060.69;5031611;28;20175;-71
2022/11/18 02:08:28;;;;;;;12.83;6.17;;;;;;;8.53;nan;-24055.16;5031803;28;20171;-71
2022/11/18 02:10:53;;;;;;;12.27;5.78;;;;;;;8.26;nan;-24047.66;5031314;28;20824;-71
2022/11/18 02:13:19;;;;;;;12.63;5.85;;;;;;;8.69;nan;-24059.84;5032213;28;20274;-71
2022/11/18 02:15:56;;;;;;;12.00;6.85;;;;;;;8.72;nan;-24060.56;5029573;28;20661;-70
2022/11/18 02:18:34;;;;;;;11.32;6.03;;;;;;;8.70;nan;-24060.13;5031078;28;20645;-72
2022/11/18 02:21:29;;;;;;;11.07;6.13;;;;;;;8.56;nan;-24056.16;5031491;28;20168;-72
2022/11/18 02:24:09;;;;;;;12.03;6.03;;;;;;;8.53;nan;-24055.16;5025881;28;20188;-70
2022/11/18 02:27:09;;;;;;;10.50;6.20;;;;;;;8.60;nan;-24057.16;5030702;28;20666;-70
2022/11/18 02:29:53;;;;;;;13.33;6.27;;;;;;;8.50;nan;-24054.47;5031040;28;20226;-70
2022/11/18 02:32:25;;;;;;;9.02;5.43;;;;;;;8.41;nan;-24052.06;5031102;28;20250;-70
2022/11/18 02:35:08;;;;;;;7.43;5.50;;;;;;;8.34;nan;-24050.06;5030634;28;20184;-70
2022/11/18 02:37:41;;;;;;;9.27;6.03;;;;;;;8.61;nan;-24057.56;5031355;28;20641;-70
2022/11/18 02:40:24;;;;;;;15.88;5.90;;;;;;;8.48;nan;-24053.91;5031031;28;20174;-70
2022/11/18 02:43:03;;;;;;;9.65;5.43;;;;;;;8.49;nan;-24054.19;5030941;28;20199;-70
2022/11/18 02:45:30;;;;;;;8.27;5.68;;;;;;;8.69;nan;-24059.69;5031158;28;20168;-70
2022/11/18 02:48:04;;;;;;;10.13;5.57;;;;;;;8.71;nan;-24060.41;5032681;28;20164;-70
2022/11/18 02:50:33;;;;;;;9.30;5.80;;;;;;;8.64;nan;-24058.44;5034838;28;20214;-70
2022/11/18 02:53:02;;;;;;;8.85;4.82;;;;;;;8.30;nan;-24048.81;5034946;28;20634;-70
2022/11/18 02:55:31;;;;;;;10.05;6.03;;;;;;;8.72;nan;-24060.56;5035212;28;20250;-70
2022/11/18 02:57:58;;;;;;;7.97;5.63;;;;;;;8.22;nan;-24046.53;5034887;28;20186;-70
2022/11/18 03:00:23;;;;;;;9.77;5.45;;;;;;;8.63;nan;-24058.00;5034407;28;20563;-70
2022/11/18 03:02:49;;;;;;;9.18;4.95;;;;;;;8.43;nan;-24052.47;5034874;28;20182;-70
2022/11/18 03:05:29;;;;;;;9.02;6.10;;;;;;;8.55;nan;-24055.75;5034941;28;20160;-70
2022/11/18 03:08:02;;;;;;;9.32;5.75;;;;;;;8.51;nan;-24054.75;5035256;28;20163;-70
2022/11/18 03:10:34;;;;;;;8.38;5.68;;;;;;;8.26;nan;-24047.66;5033973;28;20195;-70
2022/11/18 03:13:24;;;;;;;8.32;5.40;;;;;;;8.69;nan;-24059.84;5034528;28;20176;-70
2022/11/18 03:16:05;;;;;;;7.40;4.57;;;;;;;8.41;nan;-24052.06;5034629;28;20256;-74
2022/11/18 03:18:51;;;;;;;9.33;4.87;;;;;;;8.41;nan;-24051.91;5034252;28;20220;-70
2022/11/18 03:21:30;;;;;;;9.93;5.23;;;;;;;8.45;nan;-24053.06;5034355;28;20282;-70
2022/11/18 03:24:10;;;;;;;5.32;4.00;;;;;;;8.15;nan;-24044.56;5034506;28;20225;-71
2022/11/18 03:26:42;;;;;;;10.95;5.57;;;;;;;8.10;nan;-24043.13;5034052;28;20676;-71
2022/11/18 03:29:12;;;;;;;7.50;4.77;;;;;;;7.87;nan;-24036.91;5034437;28;20199;-70
2022/11/18 03:31:45;;;;;;;10.45;5.93;;;;;;;8.28;nan;-24048.22;5034151;28;20658;-70
2022/11/18 03:34:34;;;;;;;12.40;6.30;;;;;;;8.31;nan;-24049.09;5034372;28;20180;-71
2022/11/18 03:37:02;;;;;;;8.33;5.17;;;;;;;8.08;nan;-24042.72;5015927;28;20190;-70
2022/11/18 03:39:32;;;;;;;9.47;5.70;;;;;;;7.91;nan;-24037.88;5033796;28;20171;-70
2022/11/18 03:42:07;;;;;;;7.20;5.50;;;;;;;8.11;nan;-24043.41;5034246;28;20164;-70
2022/11/18 03:44:37;;;;;;;5.93;5.33;;;;;;;7.99;nan;-24040.31;5033961;28;20171;-70
2022/11/18 03:47:10;;;;;;;9.53;6.07;;;;;;;7.85;nan;-24036.19;5034015;28;20172;-71
2022/11/18 03:49:44;;;;;;;8.60;5.97;;;;;;;7.96;nan;-24039.44;5033866;28;20196;-72
2022/11/18 03:52:17;;;;;;;9.87;5.73;;;;;;;7.78;nan;-24034.34;5034178;28;20203;-70
2022/11/18 03:54:46;;;;;;;10.13;6.27;;;;;;;7.48;nan;-24025.84;5033876;28;20182;-70
2022/11/18 03:57:17;;;;;;;10.43;6.03;;;;;;;7.58;nan;-24028.53;5033884;28;20254;-70
2022/11/18 03:59:48;;;;;;;9.17;5.40;;;;;;;8.00;nan;-24040.44;5032677;28;20560;-70
2022/11/18 04:02:20;;;;;;;12.33;6.63;;;;;;;7.71;nan;-24032.38;5033129;28;20527;-71
2022/11/18 04:04:49;;;;;;;14.73;5.67;;;;;;;7.59;nan;-24028.97;5033594;28;20171;-70
2022/11/18 04:07:31;;;;;;;10.27;4.93;;;;;;;7.98;nan;-24039.88;5033772;28;20179;-70
2022/11/18 04:10:11;;;;;;;9.90;5.33;;;;;;;7.83;nan;-24035.63;5015573;28;20234;-71
2022/11/18 04:12:52;;;;;;;10.30;5.43;;;;;;;7.80;nan;-24034.78;5033080;28;20218;-71
2022/11/18 04:15:19;;;;;;;12.67;6.17;;;;;;;7.75;nan;-24033.38;5033537;28;20193;-71
2022/11/18 04:17:44;;;;;;;12.57;6.73;;;;;;;7.87;nan;-24036.91;5018355;28;20175;-71
2022/11/18 04:20:17;;;;;;;14.03;5.97;;;;;;;8.21;nan;-24046.41;5016812;28;20262;-71
2022/11/18 04:22:42;;;;;;;9.37;5.90;;;;;;;8.16;nan;-24044.84;5017241;28;20214;-71
2022/11/18 04:25:07;;;;;;;12.30;6.10;;;;;;;8.36;nan;-24050.66;5015151;28;20636;-71
2022/11/18 04:27:33;;;;;;;9.20;5.80;;;;;;;8.22;nan;-24046.69;5016783;28;20184;-71
2022/11/18 04:29:58;;;;;;;11.35;6.15;;;;;;;8.11;nan;-24043.41;5016845;28;20835;-71
2022/11/18 04:32:24;;;;;;;15.67;7.07;;;;;;;8.40;nan;-24051.63;5015849;28;20211;-71
2022/11/18 04:34:49;;;;;;;9.02;5.65;;;;;;;8.15;nan;-24044.56;5016051;28;20191;-71
2022/11/18 04:37:14;;;;;;;8.53;5.67;;;;;;;8.04;nan;-24041.56;5016594;28;20295;-71
2022/11/18 04:39:40;;;;;;;13.00;5.32;;;;;;;8.42;nan;-24052.34;5016713;28;20207;-71
2022/11/18 04:42:05;;;;;;;11.63;6.33;;;;;;;8.25;nan;-24047.53;5015892;28;20180;-72
2022/11/18 04:44:32;;;;;;;12.27;6.77;;;;;;;8.39;nan;-24051.50;4999688;28;20187;-72
2022/11/18 04:47:00;;;;;;;10.00;6.07;;;;;;;8.13;nan;-24044.00;5015960;28;21186;-72
2022/11/18 04:49:27;;;;;;;9.57;5.80;;;;;;;8.29;nan;-24048.50;5015151;28;20720;-72
2022/11/18 04:51:53;;;;;;;11.93;6.33;;;;;;;8.20;nan;-24046.09;5018045;28;20179;-72
2022/11/18 04:54:19;;;;;;;12.00;6.97;;;;;;;8.40;nan;-24051.63;5016662;28;20196;-72
2022/11/18 04:56:47;;;;;;;8.35;6.10;;;;;;;8.10;nan;-24043.13;5015987;28;20194;-72
2022/11/18 04:59:13;;;;;;;12.43;6.18;;;;;;;8.17;nan;-24045.13;5016977;28;20184;-72
2022/11/18 05:01:39;;;;;;;8.88;5.25;;;;;;;8.08;nan;-24042.72;5016940;28;20191;-71
2022/11/18 05:04:05;;;;;;;8.70;4.85;;;;;;;8.08;nan;-24042.56;5015591;28;20190;-71
2022/11/18 05:06:32;;;;;;;10.23;5.75;;;;;;;8.20;nan;-24045.97;5016271;28;20188;-71
2022/11/18 05:08:58;;;;;;;10.82;5.68;;;;;;;8.37;nan;-24050.94;5015910;28;20567;-71
2022/11/18 05:14:09;;;;;;;12.93;5.47;;;;;;;8.94;nan;-24066.63;4995107;28;20257;-71
2022/11/18 05:16:34;;;;;;;12.97;7.27;;;;;;;8.98;nan;-24067.75;4995681;28;20184;-71
2022/11/18 05:19:01;;;;;;;13.90;5.32;;;;;;;8.72;nan;-24060.56;4995896;28;20177;-70
2022/11/18 05:21:26;;;;;;;7.38;5.25;;;;;;;8.65;nan;-24058.72;5004713;28;20232;-70
2022/11/18 05:23:52;;;;;;;11.43;6.07;;;;;;;8.76;nan;-24061.69;4999202;28;20274;-72
2022/11/18 05:26:18;;;;;;;8.87;5.70;;;;;;;8.70;nan;-24060.13;4993896;28;20676;-71
2022/11/18 05:28:43;;;;;;;12.17;5.57;;;;;;;8.90;nan;-24065.66;5001276;28;20220;-71
2022/11/18 05:31:11;;;;;;;13.90;6.20;;;;;;;9.04;nan;-24069.47;5008603;28;20247;-72
2022/11/18 05:33:37;;;;;;;11.30;5.90;;;;;;;8.60;nan;-24057.28;4992241;28;20238;-73
2022/11/18 05:36:14;;;;;;;12.63;6.90;;;;;;;8.84;nan;-24064.09;4999997;28;20189;-72
2022/11/18 05:38:40;;;;;;;11.77;6.07;;;;;;;9.30;nan;-24076.94;5001913;28;20187;-71
2022/11/18 05:41:06;;;;;;;18.13;6.43;;;;;;;9.05;nan;-24069.88;5000312;28;20620;-72
2022/11/18 05:43:32;;;;;;;17.53;7.83;;;;;;;9.56;nan;-24084.16;5001981;28;20548;-72
2022/11/18 05:45:58;;;;;;;12.73;6.33;;;;;;;9.32;nan;-24077.53;4999717;28;20188;-72
2022/11/18 05:48:24;;;;;;;11.83;6.20;;;;;;;9.41;nan;-24079.91;4989872;28;20183;-72
2022/11/18 05:50:51;;;;;;;7.57;4.77;;;;;;;9.51;nan;-24082.59;5001587;28;20188;-71
2022/11/18 05:53:18;;;;;;;13.73;6.40;;;;;;;9.50;nan;-24082.47;5000461;28;20184;-71
2022/11/18 05:56:09;;;;;;;10.87;5.70;;;;;;;9.10;nan;-24071.16;5005190;28;20175;-71
2022/11/18 05:58:34;;;;;;;11.40;6.53;;;;;;;8.98;nan;-24067.75;5011242;28;20176;-68
2022/11/18 06:01:04;;;;;;;9.67;5.77;;;;;;;9.14;nan;-24072.44;5011071;28;20164;-65
2022/11/18 06:03:33;;;;;;;14.77;6.10;;;;;;;9.23;nan;-24074.84;5011416;28;20176;-65
2022/11/18 06:06:02;;;;;;;10.73;6.33;;;;;;;9.07;nan;-24070.44;5011127;28;20183;-64
2022/11/18 06:08:31;;;;;;;10.87;6.53;;;;;;;9.23;nan;-24074.84;5007786;28;20184;-64
2022/11/18 06:10:58;;;;;;;12.23;6.17;;;;;;;8.85;nan;-24064.38;5002728;28;20232;-64
2022/11/18 06:13:31;;;;;;;14.17;7.53;;;;;;;9.11;nan;-24071.44;5021411;28;20228;-64
2022/11/18 06:15:56;;;;;;;10.27;6.03;;;;;;;9.55;nan;-24083.75;5018444;28;20237;-64
2022/11/18 06:18:25;;;;;;;8.40;5.27;;;;;;;9.23;nan;-24074.84;5030726;28;20168;-64
2022/11/18 06:20:54;;;;;;;11.13;5.80;;;;;;;8.76;nan;-24061.81;5030367;28;20589;-64
2022/11/18 06:23:20;;;;;;;10.67;5.37;;;;;;;9.18;nan;-24073.41;5032763;28;20589;-64
2022/11/18 06:25:46;;;;;;;9.27;5.43;;;;;;;9.77;nan;-24090.09;5034518;28;20175;-64
2022/11/18 06:28:14;;;;;;;13.70;5.40;;;;;;;9.62;nan;-24085.84;5034112;28;20198;-64
2022/11/18 06:30:39;;;;;;;12.13;6.13;;;;;;;9.37;nan;-24078.78;5034452;28;20347;-64
2022/11/18 06:33:05;;;;;;;10.30;6.43;;;;;;;9.68;nan;-24087.56;5034826;28;20650;-64
2022/11/18 06:35:30;;;;;;;15.17;6.87;;;;;;;9.76;nan;-24089.81;5034858;28;20172;-64
2022/11/18 06:37:56;;;;;;;11.33;6.17;;;;;;;9.45;nan;-24080.91;5033978;28;20610;-64
2022/11/18 06:40:21;;;;;;;10.35;6.72;;;;;;;9.10;nan;-24071.16;5034024;28;20198;-64
2022/11/18 06:45:30;;;;;;;10.47;6.07;;;;;;;9.54;nan;-24083.47;5032483;28;20732;-64
2022/11/18 06:47:57;;;;;;;12.75;6.45;;;;;;;9.87;nan;-24092.78;5033241;28;20175;-64
2022/11/18 06:50:23;;;;;;;12.43;7.15;;;;;;;9.91;nan;-24093.91;5031500;28;20215;-64
2022/11/18 06:52:48;;;;;;;15.48;7.82;;;;;;;9.68;nan;-24087.41;5033363;28;20171;-65
2022/11/18 06:55:14;;;;;;;10.03;6.40;;;;;;;9.58;nan;-24084.72;5033391;28;20259;-64
2022/11/18 06:57:39;;;;;;;11.77;7.00;;;;;;;9.60;nan;-24085.28;5015745;28;20183;-65
2022/11/18 07:00:05;;;;;;;15.30;7.17;;;;;;;9.70;nan;-24088.13;5032867;28;20266;-64
2022/11/18 07:02:31;;;;;;;13.43;7.55;;;;;;;9.68;nan;-24087.41;5033069;28;20171;-65
2022/11/18 07:04:56;;;;;;;10.27;5.85;;;;;;;10.06;nan;-24098.00;5032859;28;20236;-65
2022/11/18 07:07:22;;;;;;;14.17;6.60;;;;;;;10.14;nan;-24100.41;5032922;28;20171;-65
2022/11/18 07:09:47;;;;;;;11.97;5.83;;;;;;;9.97;nan;-24095.47;5014611;28;20567;-62
2022/11/18 07:12:13;;;;;;;11.13;5.57;;;;;;;9.97;nan;-24095.47;5032082;28;20253;-63
2022/11/18 07:14:38;;;;;;;11.02;5.90;;;;;;;10.13;nan;-24100.13;5033209;28;20598;-65
2022/11/18 07:17:04;;;;;;;14.75;6.32;;;;;;;9.87;nan;-24092.63;5033358;28;20176;-63
2022/11/18 07:19:29;;;;;;;13.93;5.80;;;;;;;10.04;nan;-24097.59;5032839;28;20268;-63
2022/11/18 07:21:55;;;;;;;16.33;6.30;;;;;;;10.37;nan;-24106.75;5032592;28;20171;-63
2022/11/18 07:24:21;;;;;;;11.30;6.57;;;;;;;10.50;nan;-24110.28;5032566;28;20178;-64
2022/11/18 07:26:46;;;;;;;13.27;6.22;;;;;;;10.51;nan;-24110.72;5032919;28;20587;-62
2022/11/18 07:29:11;;;;;;;16.00;6.75;;;;;;;10.64;nan;-24114.25;5032332;28;20187;-63
2022/11/18 07:31:38;;;;;;;15.30;6.50;;;;;;;10.40;nan;-24107.63;5014105;28;20203;-64
2022/11/18 07:34:04;;;;;;;17.75;6.07;;;;;;;10.11;nan;-24099.41;5030929;28;20175;-64
2022/11/18 07:36:29;;;;;;;14.32;5.97;;;;;;;10.54;nan;-24111.41;5031645;28;20190;-64
2022/11/18 07:38:58;;;;;;;10.90;5.28;;;;;;;10.69;nan;-24115.66;5032139;28;20182;-64
2022/11/18 07:41:26;;;;;;;15.60;6.32;;;;;;;10.40;nan;-24107.47;5031830;28;20175;-64
2022/11/18 07:43:53;;;;;;;10.38;5.63;;;;;;;10.32;nan;-24105.22;5031330;28;20634;-64
2022/11/18 07:46:20;;;;;;;14.05;7.47;;;;;;;10.92;nan;-24122.00;5030660;28;20171;-64
2022/11/18 07:48:47;;;;;;;13.45;6.47;;;;;;;10.54;nan;-24111.56;5012617;28;20677;-64
2022/11/18 07:51:15;;;;;;;10.15;6.10;;;;;;;10.68;nan;-24115.38;5012423;28;20192;-64
2022/11/18 07:53:41;;;;;;;13.77;5.65;;;;;;;10.61;nan;-24113.53;5011930;28;20176;-64
2022/11/18 07:56:07;;;;;;;10.13;6.05;;;;;;;10.52;nan;-24110.84;5011208;28;20229;-64
2022/11/18 07:58:34;;;;;;;9.35;5.53;;;;;;;10.51;nan;-24110.72;5012819;28;20254;-62
2022/11/18 08:01:10;;;;;;;8.38;5.53;;;;;;;11.05;nan;-24125.66;5013009;28;20195;-62
2022/11/18 08:03:35;;;;;;;10.73;5.63;;;;;;;10.90;nan;-24121.44;5012700;28;20214;-62
2022/11/18 08:06:02;;;;;;;12.73;5.97;;;;;;;11.23;nan;-24130.75;5011132;28;20220;-62
2022/11/18 08:08:27;;;;;;;13.18;5.82;;;;;;;11.12;nan;-24127.63;5019189;28;20190;-62
2022/11/18 08:10:57;;;;;;;8.50;5.43;;;;;;;11.30;nan;-24132.72;5020373;28;20231;-62
2022/11/18 08:13:23;;;;;;;11.93;6.38;;;;;;;11.72;nan;-24144.25;5032095;28;20205;-62
2022/11/18 08:15:49;;;;;;;11.35;5.15;;;;;;;11.64;nan;-24142.00;5032501;28;20175;-62
2022/11/18 08:18:15;;;;;;;15.65;6.65;;;;;;;11.29;nan;-24132.28;5031951;28;20656;-62
2022/11/18 08:20:40;;;;;;;11.55;6.82;;;;;;;11.60;nan;-24140.88;5031943;28;20217;-62
2022/11/18 08:23:05;;;;;;;15.32;5.47;;;;;;;11.68;nan;-24143.13;5032227;28;20251;-62
2022/11/18 08:25:31;;;;;;;10.15;6.28;;;;;;;11.62;nan;-24141.44;5032270;28;20168;-61
2022/11/18 08:27:56;;;;;;;11.85;6.43;;;;;;;11.77;nan;-24145.69;5032907;28;20179;-61
2022/11/18 08:30:22;;;;;;;16.15;6.18;;;;;;;11.59;nan;-24140.75;5033012;28;20203;-61
2022/11/18 08:32:47;;;;;;;16.00;6.93;;;;;;;11.61;nan;-24141.16;5032436;28;20187;-61
2022/11/18 08:35:13;;;;;;;17.65;7.35;;;;;;;11.10;nan;-24126.94;5032934;28;20175;-61
2022/11/18 08:37:38;;;;;;;15.27;6.70;;;;;;;10.80;nan;-24118.63;5014399;28;20172;-61
2022/11/18 08:40:04;;;;;;;13.52;6.97;;;;;;;11.24;nan;-24130.88;5032070;28;20239;-61
2022/11/18 08:42:29;;;;;;;12.27;7.70;;;;;;;11.05;nan;-24125.66;5032256;28;20254;-61
2022/11/18 08:44:55;;;;;;;18.95;7.15;;;;;;;11.68;nan;-24143.28;5031608;28;20199;-62
2022/11/18 08:47:20;;;;;;;11.93;6.47;;;;;;;11.51;nan;-24138.50;5032081;28;20666;-62
2022/11/18 08:49:46;;;;;;;15.13;7.10;;;;;;;11.74;nan;-24144.84;5032278;28;20199;-61
2022/11/18 08:52:11;;;;;;;17.42;8.90;;;;;;;11.59;nan;-24140.59;5032183;28;20216;-62
2022/11/18 08:54:37;;;;;;;14.75;7.85;;;;;;;11.30;nan;-24132.72;5031809;28;20756;-59
2022/11/18 08:57:03;;;;;;;23.58;7.07;;;;;;;11.68;nan;-24143.13;5032036;28;20168;-62
2022/11/18 08:59:28;;;;;;;23.48;8.77;;;;;;;11.60;nan;-24140.88;5031638;28;20179;-62
2022/11/18 09:01:53;;;;;;;17.48;7.70;;;;;;;11.39;nan;-24135.09;5032047;28;20214;-62
2022/11/18 09:04:19;;;;;;;15.48;6.95;;;;;;;11.89;nan;-24149.06;5032342;28;20167;-62
2022/11/18 09:06:44;;;;;;;17.30;6.95;;;;;;;11.70;nan;-24143.69;5032088;28;20176;-62
2022/11/18 09:09:10;;;;;;;17.08;7.03;;;;;;;11.68;nan;-24143.28;5031887;28;20246;-62
2022/11/18 09:11:38;;;;;;;12.27;6.80;;;;;;;11.95;nan;-24150.88;5032327;28;20215;-62
2022/11/18 09:14:03;;;;;;;13.57;6.65;;;;;;;11.76;nan;-24145.41;5032027;28;20171;-62
2022/11/18 09:16:31;;;;;;;13.52;7.65;;;;;;;12.20;nan;-24157.78;5032141;28;20179;-62
2022/11/18 09:18:57;;;;;;;12.00;6.78;;;;;;;12.07;nan;-24154.13;5031991;28;20171;-61
2022/11/18 09:21:23;;;;;;;13.77;6.82;;;;;;;12.01;nan;-24152.44;5032042;28;20167;-61
2022/11/18 09:23:49;;;;;;;16.30;8.00;;;;;;;12.25;nan;-24159.19;5031760;28;20611;-61
2022/11/18 09:26:18;;;;;;;16.27;7.13;;;;;;;12.27;nan;-24159.63;5032295;28;20164;-61
2022/11/18 09:28:43;;;;;;;18.05;7.85;;;;;;;12.19;nan;-24157.50;5031848;28;20174;-61
2022/11/18 09:31:14;;;;;;;14.68;7.68;;;;;;;11.82;nan;-24147.22;5031733;28;20191;-61
2022/11/18 09:33:40;;;;;;;16.80;7.93;;;;;;;12.11;nan;-24155.13;5031527;28;20694;-61
2022/11/18 09:36:12;;;;;;;20.20;8.18;;;;;;;11.94;nan;-24150.47;5031530;28;20250;-61
2022/11/18 09:38:38;;;;;;;17.98;7.53;;;;;;;12.21;nan;-24158.06;5031721;28;20174;-61
2022/11/18 09:41:10;;;;;;;18.63;9.27;;;;;;;12.47;nan;-24165.09;5032065;28;20168;-61
2022/11/18 09:43:38;;;;;;;25.25;9.05;;;;;;;12.43;nan;-24163.97;5031349;28;20182;-61
2022/11/18 09:46:21;;;;;;;18.42;9.40;;;;;;;12.34;nan;-24161.72;5031317;28;20164;-61
2022/11/18 09:51:38;;;;;;;22.98;9.63;;;;;;;11.78;nan;-24145.97;5025018;28;20209;-61
2022/11/18 09:54:03;;;;;;;27.02;10.98;;;;;;;12.05;nan;-24153.41;5030054;28;20185;-60
2022/11/18 09:56:29;;;;;;;26.15;10.25;;;;;;;12.39;nan;-24163.13;5031429;28;20539;-61
2022/11/18 09:58:55;;;;;;;21.33;10.07;;;;;;;12.31;nan;-24160.75;5037156;28;20613;-61
2022/11/18 10:01:21;;;;;;;31.42;11.15;;;;;;;12.06;nan;-24153.84;5037625;28;20265;-61
2022/11/18 10:03:46;;;;;;;30.55;10.95;;;;;;;12.54;nan;-24167.22;5037800;28;20309;-62
2022/11/18 10:06:28;;;;;;;24.38;10.00;;;;;;;12.62;nan;-24169.47;5033400;28;20320;-61
2022/11/18 10:09:21;;;;;;;23.65;10.93;;;;;;;12.87;nan;-24176.34;5023501;28;20180;-61
2022/11/18 10:12:19;;;;;;;24.48;10.25;;;;;;;12.99;nan;-24179.72;5023027;28;20326;-61
2022/11/18 10:14:53;;;;;;;30.42;11.98;;;;;;;13.03;nan;-24180.84;5017926;28;20653;-73
2022/11/18 10:17:43;;;;;;;29.35;10.77;;;;;;;13.10;nan;-24182.81;5016767;28;20243;-72
2022/11/18 10:20:41;;;;;;;30.58;10.48;;;;;;;13.17;nan;-24184.78;5033590;28;20178;-75
2022/11/18 10:23:06;;;;;;;30.27;11.05;;;;;;;13.27;nan;-24187.59;5037665;28;20172;-77
2022/11/18 10:25:32;;;;;;;30.73;11.93;;;;;;;12.60;nan;-24168.75;5037474;28;20233;-75
2022/11/18 10:28:12;;;;;;;26.42;11.80;;;;;;;12.48;nan;-24165.38;5037719;28;20248;-74
2022/11/18 10:30:37;;;;;;;32.63;11.60;;;;;;;12.73;nan;-24172.41;5028833;28;20210;-73
2022/11/18 10:33:18;;;;;;;26.90;11.32;;;;;;;13.00;nan;-24180.00;5020333;28;20190;-74
2022/11/18 10:35:44;;;;;;;29.45;12.85;;;;;;;13.23;nan;-24186.47;5038525;28;20183;-75
2022/11/18 10:38:17;;;;;;;29.88;12.10;;;;;;;13.40;nan;-24190.97;5023028;28;20657;-74
2022/11/18 10:40:56;;;;;;;24.15;9.95;;;;;;;13.16;nan;-24184.38;5033381;28;20187;-76
2022/11/18 10:43:54;;;;;;;20.75;9.40;;;;;;;13.21;nan;-24185.91;5025701;28;20674;-74
2022/11/18 10:46:26;;;;;;;20.20;9.45;;;;;;;13.37;nan;-24190.25;5035824;28;20270;-75
2022/11/18 10:49:07;;;;;;;23.73;10.23;;;;;;;12.91;nan;-24177.34;5030518;28;20183;-76
2022/11/18 10:51:34;;;;;;;20.38;8.82;;;;;;;13.03;nan;-24180.84;5028971;28;20191;-76
2022/11/18 10:54:12;;;;;;;19.90;9.80;;;;;;;12.49;nan;-24165.66;5028473;28;20267;-73
2022/11/18 10:56:52;;;;;;;24.88;9.07;;;;;;;12.80;nan;-24174.38;5026079;28;20696;-75
2022/11/18 10:59:30;;;;;;;20.63;9.05;;;;;;;12.65;nan;-24170.31;5019494;28;20541;-74
2022/11/18 11:02:02;;;;;;;25.33;10.10;;;;;;;12.80;nan;-24174.38;5037378;28;20179;-75
2022/11/18 11:04:28;;;;;;;26.63;9.38;;;;;;;12.47;nan;-24165.09;5037912;28;20628;-74
2022/11/18 11:06:56;;;;;;;21.80;9.13;;;;;;;12.34;nan;-24161.59;5037053;28;20630;-75
2022/11/18 11:09:30;;;;;;;20.90;8.65;;;;;;;12.78;nan;-24173.81;5035377;28;20206;-73
2022/11/18 11:12:21;;;;;;;25.42;9.20;;;;;;;12.66;nan;-24170.59;5016128;28;20223;-74
2022/11/18 11:14:52;;;;;;;23.65;9.73;;;;;;;12.54;nan;-24167.22;5030880;28;20685;-75
2022/11/18 11:17:32;;;;;;;17.50;9.35;;;;;;;11.78;nan;-24145.97;5034155;28;20195;-76
2022/11/18 11:20:09;;;;;;;20.98;9.45;;;;;;;12.24;nan;-24158.91;5034043;28;20198;-75
2022/11/18 11:22:34;;;;;;;22.05;8.90;;;;;;;12.19;nan;-24157.50;5033113;28;20221;-75
2022/11/18 11:25:00;;;;;;;22.08;9.23;;;;;;;12.07;nan;-24154.13;5033114;28;20573;-75
2022/11/18 11:27:25;;;;;;;19.15;9.68;;;;;;;12.61;nan;-24169.03;5033462;28;20171;-75
2022/11/18 11:30:06;;;;;;;33.55;10.45;;;;;;;12.50;nan;-24166.09;5033706;28;20195;-73
2022/11/18 11:33:04;;;;;;;25.35;9.32;;;;;;;12.43;nan;-24163.97;5033639;28;20411;-75
2022/11/18 11:35:39;;;;;;;25.10;11.48;;;;;;;12.57;nan;-24168.06;5034052;28;20178;-76
2022/11/18 11:38:25;;;;;;;29.48;10.82;;;;;;;12.92;nan;-24177.63;5033451;28;20175;-75
2022/11/18 11:40:59;;;;;;;27.00;11.38;;;;;;;12.89;nan;-24176.78;5032730;28;20186;-73
2022/11/18 11:44:30;;;;;;;27.88;10.85;;;;;;;13.55;nan;-24195.31;5032512;28;20170;-75
2022/11/18 11:50:03;;;;;;;30.38;11.48;;;;;;;13.54;nan;-24194.91;5033215;28;20236;-74
2022/11/18 11:53:16;;;;;;;27.55;12.00;;;;;;;13.98;nan;-24207.13;5015732;28;20536;-74
2022/11/18 11:55:56;;;;;;;26.77;13.00;;;;;;;13.75;nan;-24200.81;5027237;28;20405;-73
2022/11/18 11:58:51;;;;;;;33.22;12.05;;;;;;;13.40;nan;-24190.97;5033137;28;20254;-73
2022/11/18 12:01:23;;;;;;;37.38;14.57;;;;;;;13.33;nan;-24189.00;5033034;28;20246;-74
2022/11/18 12:03:58;;;;;;;23.52;11.05;;;;;;;13.36;nan;-24189.84;5033201;28;20249;-74
2022/11/18 12:06:24;;;;;;;21.83;10.70;;;;;;;13.22;nan;-24186.06;5033065;28;20163;-73
2022/11/18 12:09:28;;;;;;;33.33;13.07;;;;;;;13.57;nan;-24195.88;5033256;28;20251;-72
2022/11/18 12:12:33;;;;;;;30.75;12.27;;;;;;;13.09;nan;-24182.53;5033390;28;20302;-74